sensor_id;sensor_type;location;lat;lon;timestamp;pressure;altitude;pressure_sealevel;temperature;humidity
43326;BME280;28920;59.862;30.636;2022-09-03T00:00:20;101638.50;;;1.42;100.00
43326;BME280;28920;59.862;30.636;2022-09-03T00:02:56;101647.22;;;1.44;100.00
43326;BME280;28920;59.862;30.636;2022-09-03T00:05:34;101652.56;;;1.41;100.00
43326;BME280;28920;59.862;30.636;2022-09-03T00:08:09;101653.59;;;1.32;100.00
43326;BME280;28920;59.862;30.636;2022-09-03T00:10:44;101653.59;;;1.32;100.00
43326;BME280;28920;59.862;30.636;2022-09-03T00:13:16;101656.31;;;1.28;100.00
43326;BME280;28920;59.862;30.636;2022-09-03T00:15:46;101662.56;;;1.23;100.00
43326;BME280;28920;59.862;30.636;2022-09-03T00:18:20;101652.88;;;1.25;100.00
43326;BME280;28920;59.862;30.636;2022-09-03T00:20:51;101656.47;;;1.21;100.00
43326;BME280;28920;59.862;30.636;2022-09-03T00:23:25;101660.87;;;1.19;100.00
43326;BME280;28920;59.862;30.636;2022-09-03T00:25:58;101661.72;;;1.21;100.00
43326;BME280;28920;59.862;30.636;2022-09-03T00:28:33;101666.12;;;1.19;100.00
43326;BME280;28920;59.862;30.636;2022-09-03T00:31:08;101664.41;;;1.18;100.00
43326;BME280;28920;59.862;30.636;2022-09-03T00:33:43;101668.91;;;1.13;100.00
43326;BME280;28920;59.862;30.636;2022-09-03T00:36:16;101664.63;;;1.07;100.00
43326;BME280;28920;59.862;30.636;2022-09-03T00:38:46;101669.09;;;1.04;100.00
43326;BME280;28920;59.862;30.636;2022-09-03T00:41:22;101662.94;;;1.05;100.00
43326;BME280;28920;59.862;30.636;2022-09-03T00:44:08;101661.19;;;1.05;100.00
43326;BME280;28920;59.862;30.636;2022-09-03T00:46:45;101660.41;;;0.99;100.00
43326;BME280;28920;59.862;30.636;2022-09-03T00:49:34;101669.06;;;1.05;100.00
43326;BME280;28920;59.862;30.636;2022-09-03T00:52:10;101666.66;;;0.93;100.00
43326;BME280;28920;59.862;30.636;2022-09-03T00:54:45;101668.38;;;0.95;100.00
43326;BME280;28920;59.862;30.636;2022-09-03T00:57:27;101671.06;;;0.92;100.00
43326;BME280;28920;59.862;30.636;2022-09-03T01:00:04;101668.44;;;0.91;100.00
43326;BME280;28920;59.862;30.636;2022-09-03T01:02:44;101675.44;;;0.92;100.00
43326;BME280;28920;59.862;30.636;2022-09-03T01:05:25;101671.09;;;0.89;100.00
43326;BME280;28920;59.862;30.636;2022-09-03T01:08:03;101666.75;;;0.88;100.00
43326;BME280;28920;59.862;30.636;2022-09-03T01:10:38;101671.28;;;0.80;100.00
43326;BME280;28920;59.862;30.636;2022-09-03T01:13:14;101667.91;;;0.73;100.00
43326;BME280;28920;59.862;30.636;2022-09-03T01:15:53;101663.50;;;0.75;100.00
43326;BME280;28920;59.862;30.636;2022-09-03T01:18:27;101674.97;;;0.69;100.00
43326;BME280;28920;59.862;30.636;2022-09-03T01:21:16;101669.72;;;0.69;100.00
43326;BME280;28920;59.862;30.636;2022-09-03T01:24:21;101669.69;;;0.73;100.00
43326;BME280;28920;59.862;30.636;2022-09-03T01:27:15;101667.97;;;0.68;100.00
43326;BME280;28920;59.862;30.636;2022-09-03T01:29:52;101661.13;;;0.61;100.00
43326;BME280;28920;59.862;30.636;2022-09-03T01:32:25;101666.50;;;0.55;100.00
43326;BME280;28920;59.862;30.636;2022-09-03T01:35:01;101670.91;;;0.53;100.00
43326;BME280;28920;59.862;30.636;2022-09-03T01:37:38;101676.16;;;0.53;100.00
43326;BME280;28920;59.862;30.636;2022-09-03T01:40:14;101673.63;;;0.47;100.00
43326;BME280;28920;59.862;30.636;2022-09-03T01:42:52;101679.75;;;0.47;100.00
43326;BME280;28920;59.862;30.636;2022-09-03T01:45:41;101677.09;;;0.49;100.00
43326;BME280;28920;59.862;30.636;2022-09-03T01:48:31;101666.72;;;0.43;100.00
43326;BME280;28920;59.862;30.636;2022-09-03T01:51:10;101672.94;;;0.35;100.00
43326;BME280;28920;59.862;30.636;2022-09-03T01:53:55;101672.88;;;0.38;100.00
43326;BME280;28920;59.862;30.636;2022-09-03T01:56:34;101668.66;;;0.31;100.00
43326;BME280;28920;59.862;30.636;2022-09-03T01:59:08;101659.91;;;0.29;100.00
43326;BME280;28920;59.862;30.636;2022-09-03T02:01:44;101666.94;;;0.30;100.00
43326;BME280;28920;59.862;30.636;2022-09-03T02:04:16;101661.72;;;0.27;100.00
43326;BME280;28920;59.862;30.636;2022-09-03T02:06:47;101670.50;;;0.24;100.00
43326;BME280;28920;59.862;30.636;2022-09-03T02:09:15;101667.06;;;0.21;100.00
43326;BME280;28920;59.862;30.636;2022-09-03T02:11:45;101665.28;;;0.23;100.00
43326;BME280;28920;59.862;30.636;2022-09-03T02:14:16;101664.47;;;0.18;100.00
43326;BME280;28920;59.862;30.636;2022-09-03T02:16:46;101663.66;;;0.16;100.00
43326;BME280;28920;59.862;30.636;2022-09-03T02:19:16;101672.41;;;0.15;100.00
43326;BME280;28920;59.862;30.636;2022-09-03T02:21:49;101673.31;;;0.15;100.00
43326;BME280;28920;59.862;30.636;2022-09-03T02:24:18;101681.19;;;0.12;100.00
43326;BME280;28920;59.862;30.636;2022-09-03T02:26:46;101662.91;;;0.07;100.00
43326;BME280;28920;59.862;30.636;2022-09-03T02:29:15;101669.03;;;0.06;100.00
43326;BME280;28920;59.862;30.636;2022-09-03T02:31:43;101671.78;;;0.00;100.00
43326;BME280;28920;59.862;30.636;2022-09-03T02:34:13;101681.28;;;0.07;100.00
43326;BME280;28920;59.862;30.636;2022-09-03T02:36:43;101675.19;;;0.04;100.00
43326;BME280;28920;59.862;30.636;2022-09-03T02:39:12;101678.75;;;0.01;100.00
43326;BME280;28920;59.862;30.636;2022-09-03T02:41:40;101677.91;;;-0.01;100.00
43326;BME280;28920;59.862;30.636;2022-09-03T02:44:12;101663.97;;;-0.05;100.00
43326;BME280;28920;59.862;30.636;2022-09-03T02:46:44;101675.31;;;-0.04;100.00
43326;BME280;28920;59.862;30.636;2022-09-03T02:49:14;101670.97;;;-0.05;100.00
43326;BME280;28920;59.862;30.636;2022-09-03T02:51:43;101673.66;;;-0.10;100.00
43326;BME280;28920;59.862;30.636;2022-09-03T02:54:11;101675.41;;;-0.09;100.00
43326;BME280;28920;59.862;30.636;2022-09-03T02:56:39;101669.31;;;-0.09;100.00
43326;BME280;28920;59.862;30.636;2022-09-03T02:59:09;101671.88;;;-0.08;100.00
43326;BME280;28920;59.862;30.636;2022-09-03T03:01:36;101664.91;;;-0.10;100.00
43326;BME280;28920;59.862;30.636;2022-09-03T03:04:04;101672.75;;;-0.07;100.00
43326;BME280;28920;59.862;30.636;2022-09-03T03:06:34;101671.88;;;-0.06;100.00
43326;BME280;28920;59.862;30.636;2022-09-03T03:09:02;101671.03;;;-0.08;100.00
43326;BME280;28920;59.862;30.636;2022-09-03T03:11:31;101670.16;;;-0.09;100.00
43326;BME280;28920;59.862;30.636;2022-09-03T03:13:59;101671.88;;;-0.08;100.00
43326;BME280;28920;59.862;30.636;2022-09-03T03:16:27;101667.47;;;-0.04;100.00
43326;BME280;28920;59.862;30.636;2022-09-03T03:18:55;101670.06;;;-0.03;100.00
43326;BME280;28920;59.862;30.636;2022-09-03T03:21:23;101670.91;;;0.01;100.00
43326;BME280;28920;59.862;30.636;2022-09-03T03:23:52;101675.19;;;0.05;100.00
43326;BME280;28920;59.862;30.636;2022-09-03T03:26:20;101668.22;;;0.04;100.00
43326;BME280;28920;59.862;30.636;2022-09-03T03:28:56;101676.03;;;0.07;100.00
43326;BME280;28920;59.862;30.636;2022-09-03T03:31:24;101679.47;;;0.09;100.00
43326;BME280;28920;59.862;30.636;2022-09-03T03:33:53;101675.94;;;0.13;100.00
43326;BME280;28920;59.862;30.636;2022-09-03T03:36:23;101678.44;;;0.20;100.00
43326;BME280;28920;59.862;30.636;2022-09-03T03:38:54;101676.69;;;0.22;100.00
43326;BME280;28920;59.862;30.636;2022-09-03T03:41:24;101682.50;;;0.39;100.00
43326;BME280;28920;59.862;30.636;2022-09-03T03:43:53;101681.41;;;0.53;100.00
43326;BME280;28920;59.862;30.636;2022-09-03T03:46:21;101694.25;;;0.68;100.00
43326;BME280;28920;59.862;30.636;2022-09-03T03:48:50;101686.84;;;0.91;100.00
43326;BME280;28920;59.862;30.636;2022-09-03T03:51:18;101686.47;;;1.11;100.00
43326;BME280;28920;59.862;30.636;2022-09-03T03:53:47;101676.59;;;1.22;100.00
43326;BME280;28920;59.862;30.636;2022-09-03T03:56:16;101685.84;;;1.41;100.00
43326;BME280;28920;59.862;30.636;2022-09-03T03:58:44;101683.00;;;1.51;100.00
43326;BME280;28920;59.862;30.636;2022-09-03T04:01:15;101690.63;;;1.64;100.00
43326;BME280;28920;59.862;30.636;2022-09-03T04:03:44;101691.34;;;1.71;100.00
43326;BME280;28920;59.862;30.636;2022-09-03T04:06:13;101695.59;;;1.76;100.00
43326;BME280;28920;59.862;30.636;2022-09-03T04:08:43;101688.31;;;1.88;100.00
43326;BME280;28920;59.862;30.636;2022-09-03T04:11:13;101693.19;;;2.05;100.00
43326;BME280;28920;59.862;30.636;2022-09-03T04:13:44;101681.88;;;2.37;100.00
43326;BME280;28920;59.862;30.636;2022-09-03T04:16:14;101691.63;;;2.69;100.00
43326;BME280;28920;59.862;30.636;2022-09-03T04:18:44;101696.06;;;3.00;100.00
43326;BME280;28920;59.862;30.636;2022-09-03T04:21:14;101703.53;;;3.17;100.00
43326;BME280;28920;59.862;30.636;2022-09-03T04:23:44;101699.72;;;3.27;100.00
43326;BME280;28920;59.862;30.636;2022-09-03T04:26:15;101695.91;;;3.38;100.00
43326;BME280;28920;59.862;30.636;2022-09-03T04:28:45;101688.66;;;3.44;100.00
43326;BME280;28920;59.862;30.636;2022-09-03T04:31:15;101693.03;;;3.45;100.00
43326;BME280;28920;59.862;30.636;2022-09-03T04:33:43;101697.44;;;3.45;100.00
43326;BME280;28920;59.862;30.636;2022-09-03T04:36:12;101693.06;;;3.44;100.00
43326;BME280;28920;59.862;30.636;2022-09-03T04:38:43;101701.03;;;3.42;100.00
43326;BME280;28920;59.862;30.636;2022-09-03T04:41:14;101696.75;;;3.38;100.00
43326;BME280;28920;59.862;30.636;2022-09-03T04:43:42;101686.41;;;3.32;100.00
43326;BME280;28920;59.862;30.636;2022-09-03T04:46:13;101698.41;;;3.42;100.00
43326;BME280;28920;59.862;30.636;2022-09-03T04:48:42;101696.81;;;3.37;100.00
43326;BME280;28920;59.862;30.636;2022-09-03T04:51:11;101704.63;;;3.40;100.00
43326;BME280;28920;59.862;30.636;2022-09-03T04:53:41;101709.75;;;3.46;100.00
43326;BME280;28920;59.862;30.636;2022-09-03T04:56:13;101708.44;;;3.59;100.00
43326;BME280;28920;59.862;30.636;2022-09-03T04:58:42;101703.12;;;3.61;100.00
43326;BME280;28920;59.862;30.636;2022-09-03T05:01:14;101695.81;;;3.69;100.00
43326;BME280;28920;59.862;30.636;2022-09-03T05:03:42;101700.00;;;3.76;100.00
43326;BME280;28920;59.862;30.636;2022-09-03T05:06:11;101700.66;;;3.85;100.00
43326;BME280;28920;59.862;30.636;2022-09-03T05:08:39;101694.81;;;4.02;100.00
43326;BME280;28920;59.862;30.636;2022-09-03T05:11:07;101701.28;;;4.20;100.00
43326;BME280;28920;59.862;30.636;2022-09-03T05:13:35;101706.12;;;4.34;100.00
43326;BME280;28920;59.862;30.636;2022-09-03T05:16:06;101700.28;;;4.51;100.00
43326;BME280;28920;59.862;30.636;2022-09-03T05:18:36;101700.78;;;4.63;100.00
43326;BME280;28920;59.862;30.636;2022-09-03T05:21:06;101703.03;;;4.73;100.00
43326;BME280;28920;59.862;30.636;2022-09-03T05:23:35;101704.66;;;5.03;100.00
43326;BME280;28920;59.862;30.636;2022-09-03T05:26:08;101707.22;;;5.54;100.00
43326;BME280;28920;59.862;30.636;2022-09-03T05:28:39;101697.47;;;5.78;100.00
43326;BME280;28920;59.862;30.636;2022-09-03T05:31:09;101711.84;;;6.17;100.00
43326;BME280;28920;59.862;30.636;2022-09-03T05:33:40;101704.63;;;6.64;100.00
43326;BME280;28920;59.862;30.636;2022-09-03T05:36:10;101710.50;;;7.12;100.00
43326;BME280;28920;59.862;30.636;2022-09-03T05:38:38;101703.22;;;7.36;100.00
43326;BME280;28920;59.862;30.636;2022-09-03T05:41:07;101699.66;;;7.57;100.00
43326;BME280;28920;59.862;30.636;2022-09-03T05:43:36;101705.88;;;7.75;100.00
43326;BME280;28920;59.862;30.636;2022-09-03T05:46:06;101701.03;;;8.02;100.00
43326;BME280;28920;59.862;30.636;2022-09-03T05:48:35;101716.22;;;8.55;100.00
43326;BME280;28920;59.862;30.636;2022-09-03T05:51:07;101714.63;;;9.03;100.00
43326;BME280;28920;59.862;30.636;2022-09-03T05:53:37;101704.25;;;9.49;100.00
43326;BME280;28920;59.862;30.636;2022-09-03T05:56:08;101704.59;;;9.91;100.00
43326;BME280;28920;59.862;30.636;2022-09-03T05:58:38;101710.25;;;10.16;100.00
43326;BME280;28920;59.862;30.636;2022-09-03T06:01:10;101708.84;;;10.41;100.00
43326;BME280;28920;59.862;30.636;2022-09-03T06:03:40;101699.59;;;10.63;100.00
43326;BME280;28920;59.862;30.636;2022-09-03T06:06:10;101703.22;;;10.91;100.00
43326;BME280;28920;59.862;30.636;2022-09-03T06:08:40;101699.44;;;11.10;100.00
43326;BME280;28920;59.862;30.636;2022-09-03T06:11:10;101699.62;;;11.36;100.00
43326;BME280;28920;59.862;30.636;2022-09-03T06:13:38;101695.72;;;11.41;100.00
43326;BME280;28920;59.862;30.636;2022-09-03T06:16:09;101705.53;;;11.55;100.00
43326;BME280;28920;59.862;30.636;2022-09-03T06:18:38;101699.03;;;11.60;100.00
43326;BME280;28920;59.862;30.636;2022-09-03T06:21:06;101688.69;;;11.82;100.00
43326;BME280;28920;59.862;30.636;2022-09-03T06:23:36;101682.03;;;12.03;100.00
43326;BME280;28920;59.862;30.636;2022-09-03T06:26:06;101691.75;;;12.31;100.00
43326;BME280;28920;59.862;30.636;2022-09-03T06:28:36;101683.53;;;12.34;100.00
43326;BME280;28920;59.862;30.636;2022-09-03T06:31:05;101687.50;;;12.42;100.00
43326;BME280;28920;59.862;30.636;2022-09-03T06:33:35;101687.19;;;12.33;100.00
43326;BME280;28920;59.862;30.636;2022-09-03T06:36:10;101685.72;;;12.55;100.00
43326;BME280;28920;59.862;30.636;2022-09-03T06:38:40;101690.94;;;12.44;100.00
43326;BME280;28920;59.862;30.636;2022-09-03T06:41:11;101694.84;;;12.65;100.00
43326;BME280;28920;59.862;30.636;2022-09-03T06:43:40;101689.78;;;12.61;100.00
43326;BME280;28920;59.862;30.636;2022-09-03T06:46:10;101694.72;;;12.67;100.00
43326;BME280;28920;59.862;30.636;2022-09-03T06:48:40;101702.03;;;12.91;100.00
43326;BME280;28920;59.862;30.636;2022-09-03T06:51:10;101689.88;;;13.37;100.00
43326;BME280;28920;59.862;30.636;2022-09-03T06:53:41;101689.31;;;13.58;96.59
43326;BME280;28920;59.862;30.636;2022-09-03T06:56:11;101687.47;;;13.71;96.17
43326;BME280;28920;59.862;30.636;2022-09-03T06:58:41;101697.78;;;13.64;94.23
43326;BME280;28920;59.862;30.636;2022-09-03T07:01:11;101687.41;;;13.47;90.61
43326;BME280;28920;59.862;30.636;2022-09-03T07:03:41;101694.16;;;13.40;90.48
43326;BME280;28920;59.862;30.636;2022-09-03T07:06:11;101671.25;;;13.22;89.88
43326;BME280;28920;59.862;30.636;2022-09-03T07:08:41;101700.63;;;13.50;89.60
43326;BME280;28920;59.862;30.636;2022-09-03T07:11:11;101668.03;;;13.17;85.48
43326;BME280;28920;59.862;30.636;2022-09-03T07:13:41;101698.69;;;12.87;85.90
43326;BME280;28920;59.862;30.636;2022-09-03T07:16:13;101703.72;;;12.53;88.78
43326;BME280;28920;59.862;30.636;2022-09-03T07:18:42;101691.84;;;12.83;93.06
43326;BME280;28920;59.862;30.636;2022-09-03T07:21:13;101698.72;;;13.00;90.66
43326;BME280;28920;59.862;30.636;2022-09-03T07:23:43;101680.47;;;12.66;90.81
43326;BME280;28920;59.862;30.636;2022-09-03T07:26:14;101699.94;;;12.43;90.40
43326;BME280;28920;59.862;30.636;2022-09-03T07:28:43;101700.06;;;12.14;90.97
43326;BME280;28920;59.862;30.636;2022-09-03T07:31:15;101695.63;;;11.85;91.89
43326;BME280;28920;59.862;30.636;2022-09-03T07:33:45;101704.28;;;11.61;93.78
43326;BME280;28920;59.862;30.636;2022-09-03T07:36:15;101705.75;;;11.52;96.41
43326;BME280;28920;59.862;30.636;2022-09-03T07:38:44;101703.25;;;11.49;95.56
43326;BME280;28920;59.862;30.636;2022-09-03T07:41:13;101704.50;;;11.58;97.75
43326;BME280;28920;59.862;30.636;2022-09-03T07:43:43;101710.47;;;11.62;98.78
43326;BME280;28920;59.862;30.636;2022-09-03T07:46:13;101704.97;;;11.50;97.25
43326;BME280;28920;59.862;30.636;2022-09-03T07:48:45;101706.41;;;11.41;97.00
43326;BME280;28920;59.862;30.636;2022-09-03T07:51:14;101702.31;;;11.36;99.23
43326;BME280;28920;59.862;30.636;2022-09-03T07:53:44;101709.75;;;11.45;100.00
43326;BME280;28920;59.862;30.636;2022-09-03T07:56:14;101707.50;;;11.66;97.96
43326;BME280;28920;59.862;30.636;2022-09-03T07:58:42;101705.66;;;11.81;95.12
43326;BME280;28920;59.862;30.636;2022-09-03T08:01:11;101698.66;;;11.93;96.20
43326;BME280;28920;59.862;30.636;2022-09-03T08:03:43;101709.53;;;12.05;97.75
43326;BME280;28920;59.862;30.636;2022-09-03T08:06:11;101696.28;;;12.03;94.71
43326;BME280;28920;59.862;30.636;2022-09-03T08:08:40;101702.47;;;12.31;96.25
43326;BME280;28920;59.862;30.636;2022-09-03T08:11:13;101709.00;;;12.93;91.89
43326;BME280;28920;59.862;30.636;2022-09-03T08:13:43;101701.44;;;13.38;89.35
43326;BME280;28920;59.862;30.636;2022-09-03T08:16:13;101703.94;;;13.54;85.54
43326;BME280;28920;59.862;30.636;2022-09-03T08:18:41;101697.97;;;13.74;83.24
43326;BME280;28920;59.862;30.636;2022-09-03T08:21:11;101695.56;;;14.07;88.36
43326;BME280;28920;59.862;30.636;2022-09-03T08:23:41;101702.88;;;14.29;80.15
43326;BME280;28920;59.862;30.636;2022-09-03T08:26:10;101705.91;;;14.60;81.64
43326;BME280;28920;59.862;30.636;2022-09-03T08:28:39;101712.22;;;14.84;76.83
43326;BME280;28920;59.862;30.636;2022-09-03T08:31:10;101705.06;;;15.07;76.63
43326;BME280;28920;59.862;30.636;2022-09-03T08:33:39;101711.91;;;15.46;79.59
43326;BME280;28920;59.862;30.636;2022-09-03T08:36:09;101701.00;;;15.58;73.24
43326;BME280;28920;59.862;30.636;2022-09-03T08:38:39;101712.72;;;15.80;75.56
43326;BME280;28920;59.862;30.636;2022-09-03T08:41:13;101704.22;;;15.41;72.42
43326;BME280;28920;59.862;30.636;2022-09-03T08:44:03;101710.69;;;15.15;74.82
43326;BME280;28920;59.862;30.636;2022-09-03T08:46:40;101701.41;;;14.61;79.09
43326;BME280;28920;59.862;30.636;2022-09-03T08:49:13;101704.22;;;14.71;75.35
43326;BME280;28920;59.862;30.636;2022-09-03T08:51:44;101705.19;;;14.70;77.15
43326;BME280;28920;59.862;30.636;2022-09-03T08:54:15;101700.16;;;14.54;78.13
43326;BME280;28920;59.862;30.636;2022-09-03T08:56:43;101706.78;;;14.25;79.31
43326;BME280;28920;59.862;30.636;2022-09-03T08:59:14;101701.56;;;14.35;78.12
43326;BME280;28920;59.862;30.636;2022-09-03T09:01:49;101706.06;;;14.70;82.86
43326;BME280;28920;59.862;30.636;2022-09-03T09:04:29;101709.19;;;14.53;79.32
43326;BME280;28920;59.862;30.636;2022-09-03T09:07:05;101701.75;;;14.21;77.79
43326;BME280;28920;59.862;30.636;2022-09-03T09:09:44;101692.16;;;13.81;81.61
43326;BME280;28920;59.862;30.636;2022-09-03T09:12:27;101699.62;;;13.64;82.18
43326;BME280;28920;59.862;30.636;2022-09-03T09:15:05;101701.03;;;13.57;82.38
43326;BME280;28920;59.862;30.636;2022-09-03T09:17:48;101705.09;;;13.49;81.36
43326;BME280;28920;59.862;30.636;2022-09-03T09:20:22;101712.31;;;13.23;82.57
43326;BME280;28920;59.862;30.636;2022-09-03T09:22:55;101709.94;;;12.92;84.76
43326;BME280;28920;59.862;30.636;2022-09-03T09:25:25;101706.75;;;12.87;85.54
43326;BME280;28920;59.862;30.636;2022-09-03T09:27:57;101713.50;;;12.93;85.57
43326;BME280;28920;59.862;30.636;2022-09-03T09:30:31;101719.28;;;13.00;87.32
43326;BME280;28920;59.862;30.636;2022-09-03T09:33:00;101717.78;;;12.96;85.41
43326;BME280;28920;59.862;30.636;2022-09-03T09:35:27;101727.72;;;13.06;84.30
43326;BME280;28920;59.862;30.636;2022-09-03T09:37:57;101705.97;;;13.11;81.93
43326;BME280;28920;59.862;30.636;2022-09-03T09:40:29;101728.69;;;13.18;81.79
43326;BME280;28920;59.862;30.636;2022-09-03T09:43:04;101736.50;;;13.21;78.32
43326;BME280;28920;59.862;30.636;2022-09-03T09:45:34;101730.19;;;13.22;81.01
43326;BME280;28920;59.862;30.636;2022-09-03T09:48:08;101721.81;;;13.27;77.92
43326;BME280;28920;59.862;30.636;2022-09-03T09:50:37;101727.19;;;13.40;77.83
43326;BME280;28920;59.862;30.636;2022-09-03T09:53:07;101709.62;;;13.36;78.89
43326;BME280;28920;59.862;30.636;2022-09-03T09:55:52;101718.25;;;13.66;79.09
43326;BME280;28920;59.862;30.636;2022-09-03T09:58:21;101724.28;;;13.94;80.30
43326;BME280;28920;59.862;30.636;2022-09-03T10:00:56;101718.69;;;14.45;76.77
43326;BME280;28920;59.862;30.636;2022-09-03T10:03:26;101725.31;;;14.53;73.26
43326;BME280;28920;59.862;30.636;2022-09-03T10:06:02;101733.75;;;14.59;71.13
43326;BME280;28920;59.862;30.636;2022-09-03T10:17:08;101726.31;;;13.66;73.75
43326;BME280;28920;59.862;30.636;2022-09-03T10:19:47;101721.63;;;13.17;75.00
43326;BME280;28920;59.862;30.636;2022-09-03T10:22:39;101737.81;;;12.90;75.40
43326;BME280;28920;59.862;30.636;2022-09-03T10:25:09;101730.06;;;12.72;79.75
43326;BME280;28920;59.862;30.636;2022-09-03T10:27:38;101725.03;;;12.68;78.91
43326;BME280;28920;59.862;30.636;2022-09-03T10:30:06;101732.84;;;12.71;77.61
43326;BME280;28920;59.862;30.636;2022-09-03T10:32:40;101733.41;;;12.76;78.07
43326;BME280;28920;59.862;30.636;2022-09-03T10:35:19;101728.47;;;12.70;80.99
43326;BME280;28920;59.862;30.636;2022-09-03T10:37:56;101714.25;;;12.42;81.15
43326;BME280;28920;59.862;30.636;2022-09-03T10:40:33;101729.81;;;12.62;82.55
43326;BME280;28920;59.862;30.636;2022-09-03T10:43:14;101729.97;;;12.74;83.37
43326;BME280;28920;59.862;30.636;2022-09-03T10:45:53;101723.53;;;12.76;82.76
43326;BME280;28920;59.862;30.636;2022-09-03T10:48:49;101728.03;;;13.02;82.83
43326;BME280;28920;59.862;30.636;2022-09-03T10:51:25;101729.13;;;13.38;79.66
43326;BME280;28920;59.862;30.636;2022-09-03T10:54:18;101725.84;;;13.85;78.87
43326;BME280;28920;59.862;30.636;2022-09-03T10:56:55;101720.91;;;13.78;76.58
43326;BME280;28920;59.862;30.636;2022-09-03T10:59:47;101728.59;;;13.96;79.44
43326;BME280;28920;59.862;30.636;2022-09-03T11:02:30;101715.50;;;14.16;82.25
43326;BME280;28920;59.862;30.636;2022-09-03T11:05:09;101726.69;;;14.34;77.03
43326;BME280;28920;59.862;30.636;2022-09-03T11:07:45;101723.72;;;14.61;75.73
43326;BME280;28920;59.862;30.636;2022-09-03T11:10:18;101725.91;;;14.92;72.85
43326;BME280;28920;59.862;30.636;2022-09-03T11:12:56;101724.59;;;14.98;71.86
43326;BME280;28920;59.862;30.636;2022-09-03T11:15:33;101670.28;;;14.70;70.43
43326;BME280;28920;59.862;30.636;2022-09-03T11:18:07;101730.78;;;14.87;69.07
43326;BME280;28920;59.862;30.636;2022-09-03T11:20:41;101730.09;;;14.72;69.37
43326;BME280;28920;59.862;30.636;2022-09-03T11:23:10;101736.59;;;14.69;70.75
43326;BME280;28920;59.862;30.636;2022-09-03T11:25:42;101720.44;;;14.94;69.50
43326;BME280;28920;59.862;30.636;2022-09-03T11:28:22;101735.00;;;15.37;69.04
43326;BME280;28920;59.862;30.636;2022-09-03T11:31:08;101742.56;;;15.09;66.99
43326;BME280;28920;59.862;30.636;2022-09-03T11:33:42;101728.28;;;14.37;65.83
43326;BME280;28920;59.862;30.636;2022-09-03T11:36:13;101722.38;;;13.83;67.32
43326;BME280;28920;59.862;30.636;2022-09-03T11:38:49;101719.22;;;13.64;67.67
43326;BME280;28920;59.862;30.636;2022-09-03T11:41:23;101710.72;;;13.84;69.55
43326;BME280;28920;59.862;30.636;2022-09-03T11:43:56;101715.00;;;14.11;72.58
43326;BME280;28920;59.862;30.636;2022-09-03T11:46:29;101713.19;;;14.11;69.70
43326;BME280;28920;59.862;30.636;2022-09-03T11:49:09;101707.28;;;14.06;71.30
43326;BME280;28920;59.862;30.636;2022-09-03T11:51:40;101704.41;;;13.72;73.40
43326;BME280;28920;59.862;30.636;2022-09-03T11:54:23;101675.38;;;13.90;75.47
43326;BME280;28920;59.862;30.636;2022-09-03T11:57:06;101704.91;;;14.50;74.41
43326;BME280;28920;59.862;30.636;2022-09-03T11:59:37;101706.59;;;14.15;70.39
43326;BME280;28920;59.862;30.636;2022-09-03T12:02:19;101703.22;;;13.76;72.73
43326;BME280;28920;59.862;30.636;2022-09-03T12:05:04;101715.81;;;13.49;75.02
43326;BME280;28920;59.862;30.636;2022-09-03T12:10:28;101659.25;;;12.76;74.53
43326;BME280;28920;59.862;30.636;2022-09-03T12:15:59;101703.41;;;13.48;74.87
43326;BME280;28920;59.862;30.636;2022-09-03T12:18:34;101704.13;;;13.88;74.81
43326;BME280;28920;59.862;30.636;2022-09-03T12:21:05;101689.94;;;13.99;73.45
43326;BME280;28920;59.862;30.636;2022-09-03T16:08:51;101674.00;;;9.50;100.00
43326;BME280;28920;59.862;30.636;2022-09-03T16:11:31;101677.87;;;9.44;100.00
43326;BME280;28920;59.862;30.636;2022-09-03T16:14:07;101666.59;;;9.39;100.00
43326;BME280;28920;59.862;30.636;2022-09-03T16:17:01;101674.34;;;9.43;100.00
43326;BME280;28920;59.862;30.636;2022-09-03T16:19:36;101669.00;;;9.27;100.00
43326;BME280;28920;59.862;30.636;2022-09-03T16:22:21;101671.66;;;9.27;100.00
43326;BME280;28920;59.862;30.636;2022-09-03T16:24:58;101667.44;;;9.23;100.00
43326;BME280;28920;59.862;30.636;2022-09-03T16:27:34;101682.03;;;9.16;100.00
43326;BME280;28920;59.862;30.636;2022-09-03T16:30:08;101682.22;;;9.13;100.00
43326;BME280;28920;59.862;30.636;2022-09-03T16:32:56;101690.25;;;9.11;100.00
43326;BME280;28920;59.862;30.636;2022-09-03T16:35:33;101696.72;;;9.07;100.00
43326;BME280;28920;59.862;30.636;2022-09-03T16:38:29;101694.44;;;8.99;100.00
43326;BME280;28920;59.862;30.636;2022-09-03T16:41:08;101688.50;;;8.94;100.00
43326;BME280;28920;59.862;30.636;2022-09-03T16:43:46;101685.22;;;8.89;100.00
43326;BME280;28920;59.862;30.636;2022-09-03T16:46:26;101684.25;;;8.90;100.00
43326;BME280;28920;59.862;30.636;2022-09-03T16:49:14;101699.47;;;8.88;100.00
43326;BME280;28920;59.862;30.636;2022-09-03T16:51:54;101692.91;;;8.77;100.00
43326;BME280;28920;59.862;30.636;2022-09-03T16:54:45;101688.69;;;8.73;100.00
43326;BME280;28920;59.862;30.636;2022-09-03T16:57:34;101698.69;;;8.68;100.00
43326;BME280;28920;59.862;30.636;2022-09-03T17:00:12;101678.66;;;8.43;100.00
43326;BME280;28920;59.862;30.636;2022-09-03T17:03:06;101695.66;;;8.58;100.00
43326;BME280;28920;59.862;30.636;2022-09-03T17:05:58;101698.06;;;8.45;100.00
43326;BME280;28920;59.862;30.636;2022-09-03T17:08:37;101696.38;;;8.25;100.00